createdAt,value
2023-03-06T00:00:31.400Z,61.08
2023-03-06T00:02:57.975Z,61.14
2023-03-06T00:05:24.520Z,61.03
2023-03-06T00:07:51.908Z,61.02
2023-03-06T00:10:20.162Z,61.13
2023-03-06T00:12:46.862Z,60.94
2023-03-06T00:15:13.534Z,60.91
2023-03-06T00:17:40.158Z,61.19
2023-03-06T00:20:08.200Z,61.02
2023-03-06T00:22:34.702Z,61.20
2023-03-06T00:25:01.206Z,60.70
2023-03-06T00:27:27.742Z,61.06
2023-03-06T00:29:58.602Z,61.13
2023-03-06T00:32:25.787Z,61.31
2023-03-06T00:34:53.320Z,61.19
2023-03-06T00:37:20.464Z,61.00
2023-03-06T00:39:46.965Z,60.81
2023-03-06T00:42:15.366Z,61.42
2023-03-06T00:44:42.085Z,61.51
2023-03-06T00:47:08.754Z,61.23
2023-03-06T00:49:35.512Z,61.43
2023-03-06T00:52:01.963Z,61.60
2023-03-06T00:54:28.514Z,61.37
2023-03-06T00:56:55.020Z,60.90
2023-03-06T00:59:21.835Z,60.34
2023-03-06T01:01:48.424Z,60.21
2023-03-06T01:04:15.153Z,59.98
2023-03-06T01:06:41.787Z,59.45
2023-03-06T01:09:09.479Z,59.75
2023-03-06T01:11:35.968Z,59.25
2023-03-06T01:14:04.064Z,59.27
2023-03-06T01:16:30.646Z,59.05
2023-03-06T01:18:57.156Z,59.40
2023-03-06T01:21:23.997Z,59.41
2023-03-06T01:23:50.571Z,59.52
2023-03-06T01:26:17.087Z,59.38
2023-03-06T01:28:43.698Z,59.25
2023-03-06T01:31:10.510Z,59.44
2023-03-06T01:33:37.363Z,59.28
2023-03-06T01:36:05.355Z,59.58
2023-03-06T01:38:31.825Z,59.46
2023-03-06T01:40:58.539Z,59.33
2023-03-06T01:43:28.472Z,59.50
2023-03-06T01:46:13.601Z,59.46
2023-03-06T01:48:40.384Z,59.38
2023-03-06T01:51:06.984Z,59.14
2023-03-06T01:53:33.560Z,58.98
2023-03-06T01:56:00.173Z,58.85
2023-03-06T01:58:26.746Z,58.77
2023-03-06T02:00:53.312Z,58.43
2023-03-06T02:03:24.355Z,58.17
2023-03-06T02:05:50.964Z,58.55
2023-03-06T02:08:18.574Z,57.96
2023-03-06T02:11:03.950Z,57.22
2023-03-06T02:13:30.841Z,57.43
2023-03-06T02:15:57.449Z,57.60
2023-03-06T02:18:23.984Z,57.26
2023-03-06T02:20:53.214Z,57.26
2023-03-06T02:23:19.653Z,56.90
2023-03-06T02:25:48.105Z,56.85
2023-03-06T02:28:16.839Z,56.53
2023-03-06T02:30:44.733Z,56.68
2023-03-06T02:33:20.081Z,56.20
2023-03-06T02:35:49.932Z,56.70
2023-03-06T02:38:17.856Z,56.42
2023-03-06T02:40:47.010Z,56.67
2023-03-06T02:43:15.222Z,56.47
2023-03-06T02:45:45.264Z,56.19
2023-03-06T02:48:12.738Z,56.43
2023-03-06T02:50:39.933Z,56.32
2023-03-06T02:53:07.190Z,56.55
2023-03-06T02:55:34.007Z,56.11
2023-03-06T02:58:01.212Z,56.46
2023-03-06T03:00:29.145Z,56.66
2023-03-06T03:02:55.937Z,56.65
2023-03-06T03:05:22.839Z,56.53
2023-03-06T03:07:56.653Z,56.11
2023-03-06T03:10:23.508Z,56.43
2023-03-06T03:12:50.699Z,56.24
2023-03-06T03:15:17.998Z,56.55
2023-03-06T03:17:44.465Z,56.69
2023-03-06T03:20:13.113Z,56.75
2023-03-06T03:22:39.790Z,56.98
2023-03-06T03:25:06.706Z,56.56
2023-03-06T03:27:33.298Z,56.52
2023-03-06T03:30:00.241Z,56.78
2023-03-06T03:32:28.632Z,57.26
2023-03-06T03:34:55.857Z,57.34
2023-03-06T03:37:24.081Z,57.02
2023-03-06T03:39:51.373Z,57.24
2023-03-06T03:42:17.942Z,57.15
2023-03-06T03:44:44.504Z,57.17
2023-03-06T03:47:11.350Z,57.24
2023-03-06T03:49:38.693Z,57.25
2023-03-06T03:52:05.502Z,57.07
2023-03-06T03:54:34.396Z,57.46
2023-03-06T03:57:00.973Z,57.09
2023-03-06T03:59:32.550Z,57.35
2023-03-06T04:02:14.946Z,57.45
2023-03-06T04:04:52.516Z,57.51
2023-03-06T04:07:19.151Z,58.04
2023-03-06T04:09:45.674Z,58.21
2023-03-06T04:12:12.244Z,58.26
2023-03-06T04:14:38.752Z,58.52
2023-03-06T04:17:05.800Z,59.04
2023-03-06T04:19:32.799Z,59.40
2023-03-06T04:22:01.736Z,58.93
2023-03-06T04:24:30.394Z,59.31
2023-03-06T04:26:56.981Z,59.41
2023-03-06T04:29:23.781Z,59.62
2023-03-06T04:31:50.839Z,60.68
2023-03-06T04:34:17.380Z,60.97
2023-03-06T04:36:45.422Z,61.17
2023-03-06T04:39:14.041Z,61.66
2023-03-06T04:41:41.218Z,61.50
2023-03-06T04:44:08.201Z,61.73
2023-03-06T04:46:34.707Z,61.97
2023-03-06T04:49:01.146Z,61.74
2023-03-06T04:51:27.741Z,62.03
2023-03-06T04:53:56.896Z,62.21
2023-03-06T04:56:23.568Z,62.45
2023-03-06T04:58:50.485Z,62.40
2023-03-06T05:01:17.001Z,62.57
2023-03-06T05:03:43.529Z,62.55
2023-03-06T05:06:10.033Z,62.21
2023-03-06T05:08:36.646Z,62.85
2023-03-06T05:11:03.363Z,62.24
2023-03-06T05:13:29.912Z,62.38
2023-03-06T05:16:01.101Z,62.34
2023-03-06T05:18:27.545Z,62.85
2023-03-06T05:20:59.371Z,62.94
2023-03-06T05:23:26.677Z,63.11
2023-03-06T05:25:53.270Z,63.29
2023-03-06T05:28:20.032Z,63.38
2023-03-06T05:30:46.776Z,63.69
2023-03-06T05:33:13.390Z,64.21
2023-03-06T05:35:39.998Z,64.19
2023-03-06T05:38:06.689Z,64.14
2023-03-06T05:40:33.173Z,63.82
2023-03-06T05:42:59.737Z,63.76
2023-03-06T05:45:26.249Z,64.14
2023-03-06T05:47:52.814Z,63.87
2023-03-06T05:50:19.382Z,64.89
2023-03-06T05:52:45.898Z,64.35
2023-03-06T05:55:12.655Z,64.41
2023-03-06T05:57:39.369Z,64.53
2023-03-06T06:00:06.204Z,63.93
2023-03-06T06:02:39.101Z,63.57
2023-03-06T06:05:05.921Z,63.83
2023-03-06T06:07:32.782Z,63.62
2023-03-06T06:09:59.293Z,64.46
2023-03-06T06:12:26.693Z,64.88
2023-03-06T06:14:53.192Z,64.62
2023-03-06T06:17:20.226Z,63.53
2023-03-06T06:19:46.711Z,63.54
2023-03-06T06:22:13.284Z,63.40
2023-03-06T06:24:39.774Z,63.00
2023-03-06T06:27:06.654Z,62.74
2023-03-06T06:29:33.743Z,62.66
2023-03-06T06:32:00.916Z,62.75
2023-03-06T06:34:27.899Z,64.07
2023-03-06T06:36:54.537Z,63.27
2023-03-06T06:39:22.218Z,62.08
2023-03-06T06:42:02.746Z,61.74
2023-03-06T06:44:37.008Z,60.91
2023-03-06T06:49:52.744Z,60.07
2023-03-06T06:52:19.478Z,60.24
2023-03-06T06:54:46.003Z,59.92
2023-03-06T06:57:12.589Z,60.04
2023-03-06T06:59:39.123Z,59.66
2023-03-06T07:02:05.892Z,59.78
2023-03-06T07:04:32.353Z,59.17
2023-03-06T07:06:59.005Z,59.35
2023-03-06T07:09:25.873Z,59.45
2023-03-06T07:11:52.350Z,59.29
2023-03-06T07:14:18.849Z,58.72
2023-03-06T07:16:45.304Z,58.35
2023-03-06T07:19:11.797Z,58.53
2023-03-06T07:21:38.265Z,57.96
2023-03-06T07:24:04.844Z,57.69
2023-03-06T07:26:34.182Z,57.20
2023-03-06T07:29:01.378Z,56.95
2023-03-06T07:31:28.551Z,56.44
2023-03-06T07:33:55.378Z,57.87
2023-03-06T07:36:22.621Z,58.57
2023-03-06T07:38:49.396Z,57.73
2023-03-06T07:41:16.553Z,57.22
2023-03-06T07:43:43.941Z,56.36
2023-03-06T07:46:12.831Z,57.35
2023-03-06T07:48:39.867Z,56.20
2023-03-06T07:51:08.054Z,56.27
2023-03-06T07:53:35.231Z,55.27
2023-03-06T07:56:08.517Z,56.06
2023-03-06T07:58:35.697Z,56.14
2023-03-06T08:01:06.113Z,56.35
2023-03-06T08:03:33.174Z,55.74
2023-03-06T08:06:29.462Z,55.48
2023-03-06T08:08:56.911Z,53.82
2023-03-06T08:11:25.603Z,54.58
2023-03-06T08:13:52.978Z,52.55
2023-03-06T08:16:20.524Z,54.34
2023-03-06T08:18:47.013Z,52.97
2023-03-06T08:21:14.805Z,51.37
2023-03-06T08:23:41.380Z,51.49
2023-03-06T08:26:10.460Z,50.24
2023-03-06T08:28:37.049Z,50.19
2023-03-06T08:31:11.357Z,50.57
2023-03-06T08:33:38.481Z,50.39
2023-03-06T08:36:05.416Z,50.83
2023-03-06T08:38:31.903Z,49.62
2023-03-06T08:40:58.419Z,50.21
2023-03-06T08:43:25.172Z,49.29
2023-03-06T08:45:55.568Z,49.31
2023-03-06T08:48:22.230Z,48.79
2023-03-06T08:50:48.687Z,50.32
2023-03-06T08:53:15.362Z,49.97
2023-03-06T08:55:41.924Z,49.08
2023-03-06T08:58:08.667Z,48.13
2023-03-06T09:00:35.651Z,49.19
2023-03-06T09:03:02.209Z,49.38
2023-03-06T09:05:28.733Z,47.76
2023-03-06T09:07:55.521Z,47.58
2023-03-06T09:10:23.106Z,47.16
2023-03-06T09:12:52.559Z,46.74
2023-03-06T09:15:21.242Z,47.97
2023-03-06T09:17:48.140Z,46.86
2023-03-06T09:20:14.899Z,47.50
2023-03-06T09:22:45.576Z,47.13
2023-03-06T09:25:20.307Z,47.01
2023-03-06T09:27:51.367Z,47.13
2023-03-06T09:30:22.196Z,46.94
2023-03-06T09:32:48.750Z,46.34
2023-03-06T09:35:15.298Z,46.39
2023-03-06T09:37:41.968Z,47.59
2023-03-06T09:40:14.824Z,47.10
2023-03-06T09:42:41.327Z,46.22
2023-03-06T09:45:10.220Z,46.60
2023-03-06T09:47:46.415Z,45.85
2023-03-06T09:50:15.741Z,47.32
2023-03-06T09:53:17.574Z,48.13
2023-03-06T09:55:47.791Z,48.00
2023-03-06T09:58:17.754Z,49.06
2023-03-06T10:00:47.102Z,49.25
2023-03-06T10:03:27.481Z,48.42
2023-03-06T10:05:57.702Z,47.91
2023-03-06T10:08:30.990Z,48.21
2023-03-06T10:11:02.090Z,49.34
2023-03-06T10:13:48.844Z,49.49
2023-03-06T10:16:22.345Z,50.09
2023-03-06T10:18:48.967Z,50.22
2023-03-06T10:21:19.489Z,50.87
2023-03-06T10:23:54.720Z,49.93
2023-03-06T10:26:32.999Z,50.28
2023-03-06T10:29:11.668Z,48.92
2023-03-06T10:31:44.739Z,48.66
2023-03-06T10:34:20.363Z,49.40
2023-03-06T10:36:46.881Z,48.42
2023-03-06T10:39:21.116Z,50.31
2023-03-06T10:41:48.265Z,49.98
2023-03-06T10:44:14.748Z,49.22
2023-03-06T10:46:42.939Z,48.18
2023-03-06T10:49:28.372Z,48.89
2023-03-06T10:51:56.743Z,49.93
2023-03-06T10:54:23.380Z,50.14
2023-03-06T10:56:49.871Z,50.54
2023-03-06T10:59:22.902Z,49.41
2023-03-06T11:01:50.705Z,49.30
2023-03-06T11:04:26.547Z,48.82
2023-03-06T11:07:08.370Z,48.52
2023-03-06T11:09:35.362Z,49.17
2023-03-06T11:12:17.093Z,49.32
2023-03-06T11:14:43.588Z,48.95
2023-03-06T11:17:26.713Z,49.24
2023-03-06T11:20:07.369Z,48.27
2023-03-06T11:22:34.383Z,48.29
2023-03-06T11:25:01.428Z,48.12
2023-03-06T11:27:34.926Z,50.33
2023-03-06T11:30:14.540Z,49.46
2023-03-06T11:32:59.065Z,48.82
2023-03-06T11:35:36.009Z,47.50
2023-03-06T11:38:10.867Z,48.65
2023-03-06T11:40:41.769Z,48.00
2023-03-06T11:43:17.282Z,47.71
2023-03-06T11:45:51.448Z,47.86
2023-03-06T11:48:23.197Z,47.71
2023-03-06T11:50:53.411Z,48.09
2023-03-06T11:53:26.475Z,49.60
2023-03-06T11:56:22.867Z,48.99
2023-03-06T11:59:07.772Z,51.72
2023-03-06T12:01:37.291Z,50.19
2023-03-06T12:04:03.774Z,49.02
2023-03-06T12:06:39.395Z,49.62
2023-03-06T12:09:05.909Z,49.44
2023-03-06T12:11:52.638Z,51.16
2023-03-06T12:14:37.551Z,50.41
2023-03-06T12:17:05.678Z,50.44
2023-03-06T12:19:33.236Z,51.14
2023-03-06T12:22:14.619Z,50.92
2023-03-06T12:25:07.434Z,51.62
2023-03-06T12:27:38.370Z,51.23
2023-03-06T12:30:23.597Z,52.87
2023-03-06T12:33:02.121Z,52.38
2023-03-06T12:35:47.537Z,51.56
2023-03-06T12:38:33.972Z,51.46
2023-03-06T12:41:00.448Z,52.08
2023-03-06T12:43:26.910Z,51.73
2023-03-06T12:45:56.533Z,52.94
2023-03-06T12:48:25.198Z,52.09
2023-03-06T12:50:52.112Z,53.42
2023-03-06T12:53:26.423Z,52.57
2023-03-06T12:55:54.060Z,52.68
2023-03-06T12:58:29.804Z,52.09
2023-03-06T13:01:08.385Z,52.62
2023-03-06T13:03:53.068Z,51.66
2023-03-06T13:06:45.070Z,52.31
2023-03-06T13:09:23.897Z,53.21
2023-03-06T13:11:53.410Z,52.70
2023-03-06T13:14:24.890Z,52.89
2023-03-06T13:16:51.865Z,52.82
2023-03-06T13:19:20.650Z,52.44
2023-03-06T13:21:56.372Z,52.51
2023-03-06T13:24:24.640Z,52.25
2023-03-06T13:26:55.693Z,52.56
2023-03-06T13:29:37.500Z,52.71
2023-03-06T13:32:04.023Z,53.96
2023-03-06T13:34:46.843Z,53.83
2023-03-06T13:37:13.324Z,52.86
2023-03-06T13:39:54.876Z,52.72
2023-03-06T13:42:35.219Z,52.28
2023-03-06T13:45:08.075Z,52.39
2023-03-06T13:47:55.745Z,52.54
2023-03-06T13:50:47.037Z,53.91
2023-03-06T13:53:33.257Z,53.81
2023-03-06T13:56:06.530Z,55.50
2023-03-06T13:58:41.687Z,55.40
2023-03-06T14:01:08.286Z,55.19
2023-03-06T14:03:49.552Z,55.19
2023-03-06T14:06:40.646Z,55.74
2023-03-06T14:09:11.897Z,55.89
2023-03-06T14:11:39.778Z,55.82
2023-03-06T14:14:09.454Z,56.12
2023-03-06T14:16:49.424Z,56.08
2023-03-06T14:19:17.684Z,55.69
2023-03-06T14:21:54.660Z,55.71
2023-03-06T14:24:28.779Z,55.82
2023-03-06T14:26:55.337Z,56.76
2023-03-06T14:29:22.872Z,56.17
2023-03-06T14:31:50.760Z,56.73
2023-03-06T14:34:43.528Z,55.85
2023-03-06T14:37:19.345Z,55.79
2023-03-06T14:39:46.858Z,56.40
2023-03-06T14:42:26.335Z,55.94
2023-03-06T14:45:03.202Z,54.88
2023-03-06T14:47:32.297Z,55.37
2023-03-06T14:50:17.635Z,55.11
2023-03-06T14:52:44.455Z,56.06
2023-03-06T14:55:19.130Z,57.06
2023-03-06T14:57:47.392Z,57.01
2023-03-06T15:00:17.409Z,57.84
2023-03-06T15:02:45.077Z,58.12
2023-03-06T15:05:21.198Z,58.01
2023-03-06T15:07:48.319Z,58.17
2023-03-06T15:10:25.600Z,58.43
2023-03-06T15:12:52.131Z,58.98
2023-03-06T15:15:18.719Z,58.25
2023-03-06T15:17:46.490Z,58.63
2023-03-06T15:20:31.460Z,59.70
2023-03-06T15:22:57.952Z,59.15
2023-03-06T15:25:32.078Z,59.95
2023-03-06T15:27:59.959Z,59.95
2023-03-06T15:30:36.202Z,60.08
2023-03-06T15:33:21.226Z,59.78
2023-03-06T15:36:01.876Z,60.21
2023-03-06T15:38:39.915Z,60.37
2023-03-06T15:41:19.552Z,60.81
2023-03-06T15:43:46.079Z,61.50
2023-03-06T15:46:13.345Z,61.73
2023-03-06T15:48:39.832Z,61.64
2023-03-06T15:51:06.660Z,61.04
2023-03-06T15:53:33.248Z,61.89
2023-03-06T15:55:59.922Z,61.53
2023-03-06T15:58:27.347Z,62.63
2023-03-06T16:00:53.947Z,62.79
2023-03-06T16:03:20.669Z,62.89
2023-03-06T16:05:47.205Z,63.72
2023-03-06T16:08:14.954Z,63.39
2023-03-06T16:10:42.893Z,63.65
2023-03-06T16:13:17.637Z,64.22
2023-03-06T16:15:48.828Z,63.98
2023-03-06T16:18:15.610Z,64.08
2023-03-06T16:20:42.161Z,64.54
2023-03-06T16:23:10.597Z,64.60
2023-03-06T16:25:38.824Z,65.14
2023-03-06T16:28:07.535Z,65.14
2023-03-06T16:30:35.695Z,65.33
2023-03-06T16:33:03.482Z,65.57
2023-03-06T16:35:30.233Z,66.46
2023-03-06T16:37:56.694Z,66.29
2023-03-06T16:40:27.846Z,66.82
2023-03-06T16:42:55.290Z,67.16
2023-03-06T16:45:22.400Z,67.36
2023-03-06T16:47:49.329Z,67.44
2023-03-06T16:50:21.873Z,67.94
2023-03-06T16:52:48.843Z,67.98
2023-03-06T16:55:15.384Z,68.58
2023-03-06T16:57:41.832Z,69.27
2023-03-06T17:00:11.269Z,69.44
2023-03-06T17:02:40.817Z,70.34
2023-03-06T17:05:08.293Z,70.00
2023-03-06T17:07:35.872Z,70.82
2023-03-06T17:10:03.639Z,71.18
2023-03-06T17:12:30.449Z,71.26
2023-03-06T17:14:56.912Z,71.48
2023-03-06T17:17:23.431Z,71.77
2023-03-06T17:19:50.796Z,71.93
2023-03-06T17:22:18.043Z,72.01
2023-03-06T17:24:45.104Z,72.15
2023-03-06T17:27:11.603Z,72.67
2023-03-06T17:29:38.159Z,72.76
2023-03-06T17:32:04.793Z,73.48
2023-03-06T17:34:31.448Z,73.32
2023-03-06T17:36:58.046Z,73.61
2023-03-06T17:39:24.582Z,73.69
2023-03-06T17:41:51.083Z,73.37
2023-03-06T17:44:17.606Z,73.79
2023-03-06T17:46:44.266Z,73.83
2023-03-06T17:49:10.887Z,73.96
2023-03-06T17:51:37.507Z,74.02
2023-03-06T17:54:04.131Z,74.03
2023-03-06T17:56:30.616Z,74.20
2023-03-06T17:58:57.133Z,74.35
2023-03-06T18:01:27.446Z,74.41
2023-03-06T18:03:54.508Z,74.52
2023-03-06T18:06:22.204Z,74.87
2023-03-06T18:08:52.697Z,75.26
2023-03-06T18:11:20.090Z,75.44
2023-03-06T18:13:46.656Z,75.66
2023-03-06T18:16:14.277Z,76.04
2023-03-06T18:18:44.218Z,75.92
2023-03-06T18:21:12.645Z,76.22
2023-03-06T18:23:39.942Z,76.58
2023-03-06T18:26:08.292Z,76.52
2023-03-06T18:28:36.228Z,77.00
2023-03-06T18:31:08.299Z,77.36
2023-03-06T18:33:35.466Z,77.85
2023-03-06T18:36:03.655Z,78.09
2023-03-06T18:38:30.576Z,78.39
2023-03-06T18:40:57.098Z,78.49
2023-03-06T18:43:23.657Z,78.46
2023-03-06T18:45:54.351Z,78.67
2023-03-06T18:48:21.318Z,78.61
2023-03-06T18:50:47.899Z,78.79
2023-03-06T18:53:14.500Z,78.88
2023-03-06T18:55:46.459Z,79.04
2023-03-06T18:58:12.999Z,79.20
2023-03-06T19:00:39.564Z,79.31
2023-03-06T19:03:06.269Z,79.47
2023-03-06T19:05:32.724Z,79.43
2023-03-06T19:07:59.253Z,79.39
2023-03-06T19:10:25.869Z,79.58
2023-03-06T19:12:52.669Z,79.68
2023-03-06T19:15:19.099Z,79.89
2023-03-06T19:17:48.440Z,80.38
2023-03-06T19:20:15.028Z,80.78
2023-03-06T19:22:41.524Z,80.87
2023-03-06T19:25:08.293Z,81.07
2023-03-06T19:27:37.853Z,81.15
2023-03-06T19:30:07.648Z,81.28
2023-03-06T19:32:34.229Z,81.48
2023-03-06T19:35:00.737Z,81.38
2023-03-06T19:37:27.290Z,81.57
2023-03-06T19:39:53.790Z,81.08
2023-03-06T19:42:20.428Z,81.09
2023-03-06T19:44:49.660Z,81.01
2023-03-06T19:47:16.115Z,81.20
2023-03-06T19:49:42.640Z,81.83
2023-03-06T19:52:09.091Z,82.12
2023-03-06T19:54:35.989Z,82.07
2023-03-06T19:57:02.502Z,82.24
2023-03-06T19:59:29.128Z,81.93
2023-03-06T20:01:55.699Z,80.84
2023-03-06T20:04:23.909Z,79.98
2023-03-06T20:06:51.582Z,77.39
2023-03-06T20:09:18.735Z,75.54
2023-03-06T20:11:45.361Z,75.00
2023-03-06T20:14:12.476Z,75.79
2023-03-06T20:16:39.501Z,76.74
2023-03-06T20:19:06.415Z,77.29
2023-03-06T20:21:35.435Z,78.40
2023-03-06T20:24:01.959Z,78.53
2023-03-06T20:26:29.201Z,76.70
2023-03-06T20:28:56.350Z,77.05
2023-03-06T20:31:24.614Z,74.94
2023-03-06T20:33:52.358Z,72.46
2023-03-06T20:36:20.940Z,70.26
2023-03-06T20:38:47.853Z,68.11
2023-03-06T20:41:18.371Z,66.21
2023-03-06T20:43:44.966Z,65.13
2023-03-06T20:46:11.982Z,65.09
2023-03-06T20:48:38.954Z,64.11
2023-03-06T20:51:24.733Z,63.95
2023-03-06T20:53:53.106Z,63.40
2023-03-06T20:56:20.991Z,63.03
2023-03-06T20:58:47.574Z,62.00
2023-03-06T21:01:24.590Z,61.35
2023-03-06T21:03:51.598Z,60.90
2023-03-06T21:06:18.654Z,61.08
2023-03-06T21:08:45.452Z,60.83
2023-03-06T21:11:11.912Z,60.97
2023-03-06T21:13:38.615Z,61.51
2023-03-06T21:16:10.034Z,61.68
2023-03-06T21:18:36.698Z,62.04
2023-03-06T21:21:11.444Z,61.97
2023-03-06T21:23:38.048Z,62.57
2023-03-06T21:26:04.574Z,62.23
2023-03-06T21:28:31.272Z,62.61
2023-03-06T21:31:01.123Z,62.83
2023-03-06T21:33:27.694Z,63.06
2023-03-06T21:35:54.299Z,63.16
2023-03-06T21:38:20.957Z,63.10
2023-03-06T21:40:47.609Z,63.78
2023-03-06T21:43:15.740Z,64.15
2023-03-06T21:45:46.130Z,64.11
2023-03-06T21:48:13.392Z,64.64
2023-03-06T21:50:40.238Z,64.56
2023-03-06T21:53:06.971Z,65.03
2023-03-06T21:55:33.548Z,64.83
2023-03-06T21:58:00.047Z,65.04
2023-03-06T22:00:26.712Z,65.15
2023-03-06T22:02:53.218Z,65.17
2023-03-06T22:05:19.736Z,64.72
2023-03-06T22:07:46.270Z,64.46
2023-03-06T22:10:14.169Z,64.39
2023-03-06T22:12:40.683Z,64.30
2023-03-06T22:15:07.520Z,64.38
2023-03-06T22:17:34.082Z,64.43
2023-03-06T22:20:00.732Z,64.05
2023-03-06T22:22:27.249Z,64.84
2023-03-06T22:24:53.762Z,64.75
2023-03-06T22:27:20.624Z,64.89
2023-03-06T22:29:47.154Z,64.91
2023-03-06T22:32:13.770Z,64.82
2023-03-06T22:34:40.320Z,65.59
2023-03-06T22:37:06.904Z,65.94
2023-03-06T22:39:33.423Z,66.48
2023-03-06T22:41:59.924Z,66.36
2023-03-06T22:44:26.406Z,66.86
2023-03-06T22:46:53.449Z,66.75
2023-03-06T22:49:20.125Z,67.36
2023-03-06T22:51:46.668Z,67.59
2023-03-06T22:54:13.208Z,67.00
2023-03-06T22:56:39.751Z,66.98
2023-03-06T22:59:06.408Z,67.28
2023-03-06T23:01:33.849Z,67.33
2023-03-06T23:04:01.986Z,67.25
2023-03-06T23:06:28.623Z,67.47
2023-03-06T23:08:56.458Z,66.91
2023-03-06T23:11:23.517Z,66.91
2023-03-06T23:14:12.111Z,67.61
2023-03-06T23:16:57.648Z,67.63
2023-03-06T23:19:42.426Z,67.57
2023-03-06T23:22:27.351Z,68.43
2023-03-06T23:25:12.436Z,68.47
2023-03-06T23:27:38.992Z,68.48
2023-03-06T23:30:06.152Z,68.95
2023-03-06T23:32:33.663Z,69.05
2023-03-06T23:35:00.950Z,69.61
2023-03-06T23:37:27.431Z,69.46
2023-03-06T23:39:54.586Z,69.63
2023-03-06T23:42:22.553Z,69.98
2023-03-06T23:44:49.186Z,69.50
2023-03-06T23:47:17.199Z,69.50
2023-03-06T23:49:43.768Z,68.86
2023-03-06T23:52:10.272Z,69.17
2023-03-06T23:54:36.736Z,69.16
2023-03-06T23:57:03.349Z,69.47
2023-03-06T23:59:30.057Z,69.50
